createdAt,value
2022-12-04T00:00:03.940Z,100699.33
2022-12-04T00:02:08.348Z,100710.48
2022-12-04T00:04:12.914Z,100714.61
2022-12-04T00:06:17.467Z,100718.47
2022-12-04T00:08:21.855Z,100719.27
2022-12-04T00:10:26.234Z,100730.13
2022-12-04T00:12:30.670Z,100720.95
2022-12-04T00:14:44.499Z,100719.87
2022-12-04T00:17:28.922Z,100715.5
2022-12-04T00:19:33.266Z,100712.88
2022-12-04T00:21:37.655Z,100722.86
2022-12-04T00:23:42.019Z,100711.5
2022-12-04T00:25:46.391Z,100709.63
2022-12-04T00:27:50.803Z,100701.88
2022-12-04T00:29:55.823Z,100698.52
2022-12-04T00:32:00.857Z,100701.23
2022-12-04T00:34:09.215Z,100716.36
2022-12-04T00:36:13.628Z,100708.81
2022-12-04T00:38:18.011Z,100713.27
2022-12-04T00:40:22.373Z,100715.67
2022-12-04T00:42:26.801Z,100711.7
2022-12-04T00:44:31.198Z,100706.08
2022-12-04T00:46:35.585Z,100693.44
2022-12-04T00:48:39.981Z,100684.02
2022-12-04T00:50:44.489Z,100697.78
2022-12-04T00:52:48.821Z,100708.84
2022-12-04T00:54:53.243Z,100706.12
2022-12-04T00:56:57.634Z,100702
2022-12-04T00:59:02.057Z,100698.53
2022-12-04T01:01:06.689Z,100700.03
2022-12-04T01:03:11.406Z,100700.34
2022-12-04T01:05:15.961Z,100701.67
2022-12-04T01:07:20.376Z,100691.85
2022-12-04T01:09:24.759Z,100683.8
2022-12-04T01:11:29.130Z,100678.13
2022-12-04T01:13:33.557Z,100680.72
2022-12-04T01:15:37.935Z,100682.45
2022-12-04T01:17:42.310Z,100689.67
2022-12-04T01:19:46.700Z,100682.4
2022-12-04T01:21:51.083Z,100683.15
2022-12-04T01:23:55.480Z,100678.9
2022-12-04T01:26:00.020Z,100680.53
2022-12-04T01:28:04.418Z,100669.83
2022-12-04T01:30:08.858Z,100664.8
2022-12-04T01:32:13.479Z,100660.13
2022-12-04T01:34:17.903Z,100657.72
2022-12-04T01:36:22.267Z,100660.78
2022-12-04T01:38:26.630Z,100664.25
2022-12-04T01:40:30.973Z,100665.75
2022-12-04T01:42:35.396Z,100664.05
2022-12-04T01:44:39.802Z,100668.51
2022-12-04T01:46:44.176Z,100668.95
2022-12-04T01:48:48.559Z,100659.73
2022-12-04T01:50:52.976Z,100656.5
2022-12-04T01:52:57.349Z,100661.98
2022-12-04T01:55:01.692Z,100661.64
2022-12-04T01:57:06.035Z,100662.59
2022-12-04T01:59:10.422Z,100652.63
2022-12-04T02:01:14.882Z,100644.56
2022-12-04T02:03:19.354Z,100644.53
2022-12-04T02:05:23.897Z,100648.11
2022-12-04T02:07:28.355Z,100648.17
2022-12-04T02:09:32.818Z,100652.39
2022-12-04T02:11:37.226Z,100657.33
2022-12-04T02:13:41.622Z,100652.05
2022-12-04T02:15:46.049Z,100655.22
2022-12-04T02:17:50.462Z,100660.59
2022-12-04T02:19:55.611Z,100656.55
2022-12-04T02:22:00.746Z,100663.28
2022-12-04T02:24:05.132Z,100658.83
2022-12-04T02:26:09.462Z,100656.55
2022-12-04T02:28:13.848Z,100657.91
2022-12-04T02:30:18.183Z,100648.66
2022-12-04T02:32:22.528Z,100644.67
2022-12-04T02:34:26.931Z,100648.2
2022-12-04T02:36:31.279Z,100654.57
2022-12-04T02:38:35.713Z,100651.81
2022-12-04T02:40:40.048Z,100650.07
2022-12-04T02:42:44.382Z,100652.01
2022-12-04T02:44:48.761Z,100646.64
2022-12-04T02:46:53.088Z,100648.81
2022-12-04T02:48:57.427Z,100649.19
2022-12-04T02:51:01.800Z,100658.5
2022-12-04T02:53:06.461Z,100659.36
2022-12-04T02:55:10.863Z,100661.66
2022-12-04T02:57:15.198Z,100665.09
2022-12-04T02:59:19.550Z,100660.37
2022-12-04T03:01:24.193Z,100652.64
2022-12-04T03:03:28.727Z,100646.77
2022-12-04T03:05:33.133Z,100641.3
2022-12-04T03:07:37.598Z,100637.24
2022-12-04T03:09:42.058Z,100645.44
2022-12-04T03:11:46.459Z,100646.8
2022-12-04T03:13:50.797Z,100648.45
2022-12-04T03:15:55.166Z,100645.3
2022-12-04T03:17:59.502Z,100645.91
2022-12-04T03:20:03.853Z,100651.47
2022-12-04T03:22:08.218Z,100651.61
2022-12-04T03:24:12.578Z,100655.99
2022-12-04T03:26:16.899Z,100653.02
2022-12-04T03:28:21.260Z,100650.55
2022-12-04T03:30:25.810Z,100650.84
2022-12-04T03:32:30.325Z,100643.56
2022-12-04T03:34:34.667Z,100647.41
2022-12-04T03:36:38.983Z,100646.47
2022-12-04T03:38:43.368Z,100645.61
2022-12-04T03:40:47.696Z,100643.84
2022-12-04T03:42:52.079Z,100651.7
2022-12-04T03:44:56.442Z,100648.73
2022-12-04T03:47:00.765Z,100647.17
2022-12-04T03:49:05.187Z,100646.76
2022-12-04T03:51:09.559Z,100649.11
2022-12-04T03:53:13.911Z,100646.48
2022-12-04T03:55:18.401Z,100644.38
2022-12-04T03:57:22.733Z,100646.15
2022-12-04T03:59:27.116Z,100646.73
2022-12-04T04:01:31.643Z,100648.67
2022-12-04T04:03:36.158Z,100642.61
2022-12-04T04:05:40.473Z,100637.95
2022-12-04T04:07:44.999Z,100633.19
2022-12-04T04:09:49.530Z,100628.33
2022-12-04T04:11:53.899Z,100633.8
2022-12-04T04:13:58.248Z,100630.94
2022-12-04T04:16:02.783Z,100630.67
2022-12-04T04:18:07.308Z,100631.04
2022-12-04T04:20:11.815Z,100628.83
2022-12-04T04:22:16.172Z,100625.05
2022-12-04T04:24:20.505Z,100621.11
2022-12-04T04:26:24.905Z,100617.88
2022-12-04T04:28:29.237Z,100619.31
2022-12-04T04:30:33.606Z,100621.96
2022-12-04T04:32:37.973Z,100615.09
2022-12-04T04:34:42.327Z,100623.25
2022-12-04T04:36:46.685Z,100613.66
2022-12-04T04:38:51.015Z,100617.95
2022-12-04T04:40:55.406Z,100620.63
2022-12-04T04:42:59.770Z,100620.52
2022-12-04T04:45:04.095Z,100623.92
2022-12-04T04:47:08.459Z,100621.27
2022-12-04T04:49:12.862Z,100624.22
2022-12-04T04:51:17.216Z,100623.3
2022-12-04T04:53:21.626Z,100618.94
2022-12-04T04:55:25.950Z,100617.52
2022-12-04T04:57:30.343Z,100621.69
2022-12-04T04:59:34.719Z,100624.31
2022-12-04T05:01:39.261Z,100628.69
2022-12-04T05:03:43.804Z,100625.48
2022-12-04T05:05:48.127Z,100626
2022-12-04T05:07:52.643Z,100629.16
2022-12-04T05:09:57.900Z,100631.17
2022-12-04T05:12:02.910Z,100628.28
2022-12-04T05:14:07.264Z,100623.93
2022-12-04T05:16:11.729Z,100623.76
2022-12-04T05:18:16.209Z,100617.95
2022-12-04T05:20:20.627Z,100621.42
2022-12-04T05:22:24.988Z,100619.73
2022-12-04T05:24:29.342Z,100626.2
2022-12-04T05:26:33.693Z,100625.17
2022-12-04T05:28:38.048Z,100620.3
2022-12-04T05:30:42.411Z,100620
2022-12-04T05:32:46.748Z,100612.34
2022-12-04T05:34:51.078Z,100619.59
2022-12-04T05:36:55.513Z,100616.7
2022-12-04T05:38:59.843Z,100613.47
2022-12-04T05:41:04.196Z,100618.91
2022-12-04T05:43:08.514Z,100623.67
2022-12-04T05:45:12.859Z,100622.92
2022-12-04T05:47:17.230Z,100626.42
2022-12-04T05:49:21.692Z,100628.76
2022-12-04T05:51:26.071Z,100625.4
2022-12-04T05:53:30.421Z,100623.16
2022-12-04T05:55:34.738Z,100619.85
2022-12-04T05:57:39.138Z,100619.38
2022-12-04T05:59:43.464Z,100621.05
2022-12-04T06:01:47.948Z,100620.46
2022-12-04T06:03:52.424Z,100626.71
2022-12-04T06:05:56.761Z,100628.52
2022-12-04T06:08:01.365Z,100632.11
2022-12-04T06:10:05.889Z,100631.43
2022-12-04T06:12:10.234Z,100634.41
2022-12-04T06:14:14.614Z,100636.29
2022-12-04T06:16:19.173Z,100637.52
2022-12-04T06:18:23.720Z,100641.27
2022-12-04T06:20:28.255Z,100642.45
2022-12-04T06:22:32.716Z,100644.76
2022-12-04T06:24:37.065Z,100652.67
2022-12-04T06:27:26.011Z,100649.45
2022-12-04T06:29:32.272Z,100649.76
2022-12-04T06:31:36.753Z,100654.28
2022-12-04T06:33:41.347Z,100659.2
2022-12-04T06:35:45.742Z,100657.16
2022-12-04T06:37:50.094Z,100648.12
2022-12-04T06:39:55.345Z,100644.21
2022-12-04T06:42:00.471Z,100653.05
2022-12-04T06:44:05.162Z,100655.16
2022-12-04T06:46:09.798Z,100656.52
2022-12-04T06:48:14.360Z,100657.89
2022-12-04T06:50:18.690Z,100655.37
2022-12-04T06:52:23.019Z,100651.42
2022-12-04T06:54:27.360Z,100644.93
2022-12-04T06:56:31.894Z,100645.78
2022-12-04T06:58:36.274Z,100635.27
2022-12-04T07:00:40.810Z,100635.03
2022-12-04T07:02:45.481Z,100634.25
2022-12-04T07:04:49.931Z,100630.41
2022-12-04T07:06:54.267Z,100633.44
2022-12-04T07:08:58.618Z,100638.84
2022-12-04T07:11:03.061Z,100638.17
2022-12-04T07:13:07.426Z,100643.27
2022-12-04T07:15:11.753Z,100649.19
2022-12-04T07:17:16.324Z,100643.61
2022-12-04T07:19:20.790Z,100644.7
2022-12-04T07:21:25.120Z,100637.91
2022-12-04T07:23:29.509Z,100644.91
2022-12-04T07:25:33.854Z,100637.05
2022-12-04T07:27:38.235Z,100638.05
2022-12-04T07:29:42.606Z,100638.94
2022-12-04T07:31:47.080Z,100637.7
2022-12-04T07:33:51.549Z,100632.5
2022-12-04T07:35:55.914Z,100638.19
2022-12-04T07:38:00.293Z,100643.22
2022-12-04T07:40:04.622Z,100648.27
2022-12-04T07:42:08.966Z,100654.3
2022-12-04T07:44:13.355Z,100656.72
2022-12-04T07:46:18.015Z,100657.45
2022-12-04T07:48:22.522Z,100661.22
2022-12-04T07:50:31.075Z,100660.07
2022-12-04T07:52:35.454Z,100663.44
2022-12-04T07:54:39.788Z,100659.36
2022-12-04T07:56:44.159Z,100658.71
2022-12-04T07:58:48.481Z,100659.19
2022-12-04T08:00:52.969Z,100654.43
2022-12-04T08:02:57.457Z,100655.38
2022-12-04T08:05:02.052Z,100654.06
2022-12-04T08:07:06.512Z,100653.11
2022-12-04T08:09:11.525Z,100647.03
2022-12-04T08:11:15.919Z,100644.45
2022-12-04T08:13:20.280Z,100646.05
2022-12-04T08:15:24.621Z,100651.26
2022-12-04T08:17:29.180Z,100652.86
2022-12-04T08:19:33.706Z,100652.56
2022-12-04T08:21:38.122Z,100658.23
2022-12-04T08:23:42.488Z,100657.17
2022-12-04T08:25:46.833Z,100659.94
2022-12-04T08:27:51.176Z,100663.16
2022-12-04T08:29:56.380Z,100658.43
2022-12-04T08:32:01.246Z,100661.64
2022-12-04T08:34:05.597Z,100658.98
2022-12-04T08:36:09.914Z,100662.39
2022-12-04T08:38:14.261Z,100664.19
2022-12-04T08:40:18.694Z,100669.19
2022-12-04T08:42:23.038Z,100667.97
2022-12-04T08:44:27.407Z,100666.78
2022-12-04T08:46:31.957Z,100673.1
2022-12-04T08:48:36.554Z,100672.83
2022-12-04T08:50:40.929Z,100673.45
2022-12-04T08:52:45.280Z,100677.45
2022-12-04T08:54:49.616Z,100683.95
2022-12-04T08:56:53.964Z,100687.63
2022-12-04T08:58:58.326Z,100691.41
2022-12-04T09:01:02.793Z,100689.95
2022-12-04T09:03:07.271Z,100691.9
2022-12-04T09:05:11.645Z,100688.2
2022-12-04T09:07:16.075Z,100684.97
2022-12-04T09:09:20.450Z,100675.66
2022-12-04T09:11:24.824Z,100672.25
2022-12-04T09:13:29.196Z,100670.37
2022-12-04T09:15:33.723Z,100671.32
2022-12-04T09:17:38.147Z,100669.84
2022-12-04T09:19:42.488Z,100667.84
2022-12-04T09:21:46.895Z,100666.83
2022-12-04T09:23:51.284Z,100666.91
2022-12-04T09:25:55.682Z,100666.23
2022-12-04T09:28:00.157Z,100659.95
2022-12-04T09:30:04.503Z,100663.02
2022-12-04T09:32:08.845Z,100659.3
2022-12-04T09:34:13.208Z,100661.84
2022-12-04T09:36:17.557Z,100663.21
2022-12-04T09:38:21.923Z,100662.27
2022-12-04T09:40:29.593Z,100664.64
2022-12-04T09:42:41.447Z,100664.27
2022-12-04T09:44:45.802Z,100659.08
2022-12-04T09:46:52.489Z,100656.29
2022-12-04T09:48:56.997Z,100661.23
2022-12-04T09:51:01.366Z,100655.01
2022-12-04T09:53:05.724Z,100648.24
2022-12-04T09:55:10.098Z,100654.7
2022-12-04T09:57:14.506Z,100651.58
2022-12-04T09:59:18.859Z,100650.03
2022-12-04T10:01:23.270Z,100657.72
2022-12-04T10:03:28.084Z,100646.3
2022-12-04T10:05:32.795Z,100642.83
2022-12-04T10:07:37.423Z,100638.02
2022-12-04T10:09:41.976Z,100640.77
2022-12-04T10:11:46.348Z,100633.88
2022-12-04T10:13:50.705Z,100634.97
2022-12-04T10:15:55.142Z,100634.67
2022-12-04T10:17:59.708Z,100633.92
2022-12-04T10:20:04.079Z,100633.78
2022-12-04T10:22:08.477Z,100633.48
2022-12-04T10:24:12.958Z,100630.63
2022-12-04T10:26:17.361Z,100626.86
2022-12-04T10:28:21.754Z,100628.77
2022-12-04T10:30:26.182Z,100630.14
2022-12-04T10:32:30.601Z,100626.92
2022-12-04T10:34:35.014Z,100626.69
2022-12-04T10:36:44.562Z,100628.84
2022-12-04T10:38:48.964Z,100629.47
2022-12-04T10:40:53.328Z,100618.41
2022-12-04T10:42:57.685Z,100619.5
2022-12-04T10:45:02.062Z,100614.95
2022-12-04T10:47:06.701Z,100615.05
2022-12-04T10:49:11.164Z,100613.39
2022-12-04T10:51:15.528Z,100607.98
2022-12-04T10:53:19.863Z,100607.2
2022-12-04T10:55:24.262Z,100607.03
2022-12-04T10:57:28.614Z,100603.73
2022-12-04T10:59:33.023Z,100597.88
2022-12-04T11:01:37.552Z,100594.78
2022-12-04T11:03:42.216Z,100598.36
2022-12-04T11:05:46.809Z,100601.45
2022-12-04T11:07:51.419Z,100602.82
2022-12-04T11:09:56.511Z,100605.48
2022-12-04T11:12:01.673Z,100597.76
2022-12-04T11:14:06.036Z,100593.58
2022-12-04T11:16:10.602Z,100590.31
2022-12-04T11:18:15.173Z,100585.11
2022-12-04T11:20:19.801Z,100584.7
2022-12-04T11:22:24.319Z,100583.27
2022-12-04T11:24:28.732Z,100575.95
2022-12-04T11:26:33.112Z,100577.8
2022-12-04T11:28:44.768Z,100578.82
2022-12-04T11:30:49.153Z,100580.08
2022-12-04T11:32:53.563Z,100580.97
2022-12-04T11:34:57.901Z,100579.81
2022-12-04T11:37:02.299Z,100579.41
2022-12-04T11:39:06.669Z,100568.52
2022-12-04T11:41:11.108Z,100564.46
2022-12-04T11:43:15.454Z,100564.47
2022-12-04T11:45:19.835Z,100561.09
2022-12-04T11:47:24.244Z,100564.47
2022-12-04T11:49:28.587Z,100556.84
2022-12-04T11:51:32.961Z,100561.06
2022-12-04T11:53:37.359Z,100559.02
2022-12-04T11:55:41.679Z,100558.98
2022-12-04T11:57:46.118Z,100560.66
2022-12-04T11:59:50.504Z,100563.3
2022-12-04T12:01:59.387Z,100564.6
2022-12-04T12:04:04.037Z,100563.58
2022-12-04T12:06:08.380Z,100564.7
2022-12-04T12:08:12.734Z,100562.52
2022-12-04T12:10:17.135Z,100560
2022-12-04T12:12:21.493Z,100558.37
2022-12-04T12:14:26.000Z,100559.52
2022-12-04T12:16:30.531Z,100564.23
2022-12-04T12:18:35.188Z,100565.28
2022-12-04T12:20:39.614Z,100563.85
2022-12-04T12:22:43.959Z,100567.63
2022-12-04T12:24:52.398Z,100566.88
2022-12-04T12:26:57.091Z,100573.66
2022-12-04T12:29:01.624Z,100576.8
2022-12-04T12:31:07.382Z,100574.58
2022-12-04T12:33:11.728Z,100568.86
2022-12-04T12:35:16.120Z,100568
2022-12-04T12:37:20.516Z,100563.98
2022-12-04T12:39:24.896Z,100563.5
2022-12-04T12:41:29.327Z,100571.03
2022-12-04T12:43:33.859Z,100578.66
2022-12-04T12:45:38.513Z,100575.15
2022-12-04T12:47:43.010Z,100574.4
2022-12-04T12:49:47.381Z,100574.5
2022-12-04T12:51:51.799Z,100577.02
2022-12-04T12:53:56.165Z,100578.18
2022-12-04T12:56:00.564Z,100576.78
2022-12-04T12:58:04.983Z,100575.66
2022-12-04T13:00:09.343Z,100565.19
2022-12-04T13:02:13.919Z,100566.45
2022-12-04T13:04:18.431Z,100557.11
2022-12-04T13:06:22.833Z,100548.22
2022-12-04T13:08:27.201Z,100543.01
2022-12-04T13:10:31.582Z,100542.53
2022-12-04T13:12:36.133Z,100540.63
2022-12-04T13:14:47.483Z,100538.85
2022-12-04T13:16:53.500Z,100534.31
2022-12-04T13:18:58.048Z,100532.5
2022-12-04T13:21:02.422Z,100529.64
2022-12-04T13:23:06.799Z,100528.48
2022-12-04T13:25:11.182Z,100528.72
2022-12-04T13:27:15.557Z,100523.98
2022-12-04T13:29:20.004Z,100522.59
2022-12-04T13:31:24.480Z,100521.56
2022-12-04T13:33:29.078Z,100521.09
2022-12-04T13:35:33.490Z,100523.1
2022-12-04T13:37:38.080Z,100516.15
2022-12-04T13:39:42.568Z,100514.69
2022-12-04T13:41:47.119Z,100516.08
2022-12-04T13:43:51.733Z,100517.75
2022-12-04T13:45:56.962Z,100515.81
2022-12-04T13:48:01.809Z,100516.7
2022-12-04T13:50:07.801Z,100516.56
2022-12-04T13:52:12.382Z,100517.38
2022-12-04T13:54:17.027Z,100526
2022-12-04T13:56:21.701Z,100527.64
2022-12-04T13:58:26.652Z,100533.59
2022-12-04T14:00:31.271Z,100538.53
2022-12-04T14:02:36.060Z,100546.3
2022-12-04T14:04:40.907Z,100552.03
2022-12-04T14:06:45.698Z,100554.45
2022-12-04T14:08:50.388Z,100553.15
2022-12-04T14:10:55.119Z,100549.64
2022-12-04T14:13:02.077Z,100554.06
2022-12-04T14:15:08.377Z,100558.19
2022-12-04T14:17:13.378Z,100556.11
2022-12-04T14:19:18.097Z,100561.16
2022-12-04T14:21:22.493Z,100556.25
2022-12-04T14:23:26.976Z,100558.56
2022-12-04T14:25:31.411Z,100557.68
2022-12-04T14:27:35.967Z,100561.02
2022-12-04T14:29:40.348Z,100561.9
2022-12-04T14:31:44.783Z,100567.05
2022-12-04T14:33:49.162Z,100567.83
2022-12-04T14:35:53.631Z,100567.94
2022-12-04T14:37:58.046Z,100563.37
2022-12-04T14:40:02.489Z,100561.87
2022-12-04T14:42:06.911Z,100561.09
2022-12-04T14:44:11.309Z,100565.55
2022-12-04T14:47:24.796Z,100571.33
2022-12-04T14:49:29.098Z,100565.8
2022-12-04T14:51:33.426Z,100565.44
2022-12-04T14:53:37.799Z,100565.58
2022-12-04T14:55:42.110Z,100567.66
2022-12-04T14:57:46.499Z,100571.3
2022-12-04T14:59:50.914Z,100568.92
2022-12-04T15:01:55.288Z,100567.16
2022-12-04T15:03:59.719Z,100570.99
2022-12-04T15:06:04.159Z,100573.83
2022-12-04T15:08:08.884Z,100565.03
2022-12-04T15:10:13.726Z,100570.59
2022-12-04T15:12:18.200Z,100569.73
2022-12-04T15:14:22.669Z,100569.88
2022-12-04T15:16:27.306Z,100566.09
2022-12-04T15:18:39.490Z,100565.78
2022-12-04T15:20:44.128Z,100563.56
2022-12-04T15:22:49.093Z,100561.04
2022-12-04T15:24:55.516Z,100561.66
2022-12-04T15:27:00.321Z,100564.52
2022-12-04T15:29:05.219Z,100563.91
2022-12-04T15:31:09.805Z,100565.84
2022-12-04T15:33:22.171Z,100565.88
2022-12-04T15:35:28.821Z,100573.1
2022-12-04T15:37:33.261Z,100575.01
2022-12-04T15:39:38.332Z,100583.59
2022-12-04T15:41:42.889Z,100582.91
2022-12-04T15:43:47.383Z,100584.03
2022-12-04T15:45:52.116Z,100588.77
2022-12-04T15:47:57.696Z,100588.16
2022-12-04T15:50:02.312Z,100587.72
2022-12-04T15:52:06.843Z,100590.27
2022-12-04T15:54:11.498Z,100601.61
2022-12-04T15:56:16.491Z,100602.77
2022-12-04T15:58:21.083Z,100598.72
2022-12-04T16:00:26.278Z,100596.06
2022-12-04T16:02:31.767Z,100596.27
2022-12-04T16:04:39.894Z,100595.15
2022-12-04T16:07:01.034Z,100598.96
2022-12-04T16:09:09.581Z,100597.45
2022-12-04T16:11:14.395Z,100590.7
2022-12-04T16:13:18.956Z,100590.29
2022-12-04T16:15:24.295Z,100589.98
2022-12-04T16:17:28.919Z,100589.91
2022-12-04T16:19:33.460Z,100590.13
2022-12-04T16:21:38.100Z,100593.2
2022-12-04T16:23:42.524Z,100592.23
2022-12-04T16:25:53.515Z,100595.47
2022-12-04T16:27:58.347Z,100594.59
2022-12-04T16:30:02.779Z,100593.77
2022-12-04T16:32:07.217Z,100587.84
2022-12-04T16:34:11.616Z,100587.41
2022-12-04T16:36:16.037Z,100585.22
2022-12-04T16:38:20.505Z,100583.31
2022-12-04T16:40:25.151Z,100585.02
2022-12-04T16:42:29.590Z,100587.05
2022-12-04T16:44:34.107Z,100583.12
2022-12-04T16:46:38.824Z,100587.86
2022-12-04T16:48:43.657Z,100585.36
2022-12-04T16:50:48.052Z,100586.45
2022-12-04T16:52:52.454Z,100591.45
2022-12-04T16:55:05.085Z,100590.9
2022-12-04T16:57:10.215Z,100593.92
2022-12-04T16:59:15.203Z,100604.16
2022-12-04T17:01:19.809Z,100609.81
2022-12-04T17:03:24.350Z,100605.75
2022-12-04T17:05:28.791Z,100600.91
2022-12-04T17:07:33.402Z,100594.38
2022-12-04T17:09:37.980Z,100597.8
2022-12-04T17:11:42.479Z,100598.82
2022-12-04T17:13:49.529Z,100603.22
2022-12-04T17:15:55.019Z,100604.23
2022-12-04T17:17:59.621Z,100603.14
2022-12-04T17:20:07.280Z,100605.48
2022-12-04T17:22:12.009Z,100610.77
2022-12-04T17:24:18.019Z,100609.34
2022-12-04T17:26:25.455Z,100605.07
2022-12-04T17:28:31.416Z,100610.86
2022-12-04T17:30:38.520Z,100608.41
2022-12-04T17:32:43.464Z,100607.95
2022-12-04T17:34:47.926Z,100612.22
2022-12-04T17:36:52.342Z,100619.86
2022-12-04T17:38:56.790Z,100613.42
2022-12-04T17:41:01.184Z,100613.19
2022-12-04T17:43:05.625Z,100614.36
2022-12-04T17:45:10.084Z,100610.1
2022-12-04T17:47:14.711Z,100607.23
2022-12-04T17:49:19.346Z,100605.74
2022-12-04T17:51:23.754Z,100603.97
2022-12-04T17:53:28.171Z,100604.56
2022-12-04T17:55:32.633Z,100610.77
2022-12-04T17:57:37.067Z,100606.34
2022-12-04T17:59:41.495Z,100606.75
2022-12-04T18:01:45.855Z,100611.09
2022-12-04T18:03:50.179Z,100609.48
2022-12-04T18:05:54.561Z,100609.28
2022-12-04T18:07:59.192Z,100610.92
2022-12-04T18:10:04.309Z,100615.87
2022-12-04T18:12:09.034Z,100611.3
2022-12-04T18:14:13.941Z,100606.91
2022-12-04T18:16:18.443Z,100603.7
2022-12-04T18:18:23.002Z,100599.09
2022-12-04T18:20:27.454Z,100597.02
2022-12-04T18:22:32.362Z,100597.25
2022-12-04T18:24:36.857Z,100599.41
2022-12-04T18:26:41.487Z,100595.8
2022-12-04T18:28:45.992Z,100596.03
2022-12-04T18:30:50.363Z,100595.52
2022-12-04T18:32:54.833Z,100602.75
2022-12-04T18:34:59.252Z,100598.34
2022-12-04T18:37:03.718Z,100593.71
2022-12-04T18:39:08.161Z,100593.84
2022-12-04T18:41:12.598Z,100590.01
2022-12-04T18:43:17.060Z,100590.59
2022-12-04T18:45:21.647Z,100593.48
2022-12-04T18:47:26.168Z,100597.61
2022-12-04T18:49:30.650Z,100595.6
2022-12-04T18:51:35.226Z,100591.82
2022-12-04T18:53:39.726Z,100592.57
2022-12-04T18:55:44.183Z,100588.31
2022-12-04T18:57:48.618Z,100586.81
2022-12-04T18:59:53.216Z,100587.05
2022-12-04T19:01:58.436Z,100579.69
2022-12-04T19:04:03.096Z,100586.77
2022-12-04T19:06:07.678Z,100580.91
2022-12-04T19:08:12.400Z,100589.08
2022-12-04T19:10:16.971Z,100584.61
2022-12-04T19:12:21.389Z,100593.3
2022-12-04T19:14:25.907Z,100595.78
2022-12-04T19:16:30.528Z,100593.94
2022-12-04T19:18:35.124Z,100596.13
2022-12-04T19:20:39.541Z,100594.45
2022-12-04T19:22:44.016Z,100597.57
2022-12-04T19:24:48.455Z,100599.55
2022-12-04T19:26:52.868Z,100601.21
2022-12-04T19:28:57.299Z,100602.53
2022-12-04T19:31:01.758Z,100599.81
2022-12-04T19:33:08.312Z,100598.55
2022-12-04T19:35:13.444Z,100600.12
2022-12-04T19:37:18.535Z,100600.09
2022-12-04T19:39:23.247Z,100606.77
2022-12-04T19:41:28.203Z,100602.58
2022-12-04T19:43:32.849Z,100601.63
2022-12-04T19:45:37.475Z,100604.11
2022-12-04T19:47:42.008Z,100605.61
2022-12-04T19:49:46.470Z,100607.66
2022-12-04T19:51:50.994Z,100603.47
2022-12-04T19:53:55.407Z,100602.38
2022-12-04T19:55:59.840Z,100610.8
2022-12-04T19:58:04.654Z,100605.86
2022-12-04T20:00:09.094Z,100608.42
2022-12-04T20:02:13.596Z,100611.32
2022-12-04T20:04:18.319Z,100607.23
2022-12-04T20:06:22.838Z,100608.69
2022-12-04T20:08:27.250Z,100609.88
2022-12-04T20:10:31.768Z,100611.23
2022-12-04T20:12:36.187Z,100612.77
2022-12-04T20:14:40.641Z,100615.43
2022-12-04T20:16:45.336Z,100616.17
2022-12-04T20:18:50.100Z,100614.61
2022-12-04T20:20:54.623Z,100613.17
2022-12-04T20:22:59.060Z,100616
2022-12-04T20:25:03.530Z,100615.69
2022-12-04T20:27:08.067Z,100621.93
2022-12-04T20:29:12.462Z,100625.03
2022-12-04T20:31:17.282Z,100625.13
2022-12-04T20:33:21.973Z,100624.21
2022-12-04T20:35:26.415Z,100618.34
2022-12-04T20:37:30.878Z,100619.56
2022-12-04T20:39:35.285Z,100621.68
2022-12-04T20:41:39.673Z,100625.22
2022-12-04T20:43:44.084Z,100625.25
2022-12-04T20:45:48.549Z,100623.23
2022-12-04T20:47:53.104Z,100622.96
2022-12-04T20:49:58.360Z,100624.8
2022-12-04T20:52:03.101Z,100630.7
2022-12-04T20:54:07.497Z,100629.34
2022-12-04T20:56:11.939Z,100628.55
2022-12-04T20:58:16.332Z,100621.93
2022-12-04T21:00:20.711Z,100622.64
2022-12-04T21:02:25.303Z,100617.7
2022-12-04T21:04:29.820Z,100618.14
2022-12-04T21:06:36.154Z,100610.84
2022-12-04T21:08:40.560Z,100608.72
2022-12-04T21:10:45.028Z,100606.2
2022-12-04T21:12:49.403Z,100606.92
2022-12-04T21:14:53.840Z,100604.05
2022-12-04T21:16:58.195Z,100600.68
2022-12-04T21:19:02.569Z,100598.88
2022-12-04T21:21:06.987Z,100595.36
2022-12-04T21:23:11.356Z,100601.2
2022-12-04T21:25:15.743Z,100603.88
2022-12-04T21:27:22.490Z,100597.53
2022-12-04T21:29:27.082Z,100598.7
2022-12-04T21:31:31.861Z,100600.81
2022-12-04T21:33:36.427Z,100594.88
2022-12-04T21:35:40.885Z,100582.16
2022-12-04T21:37:45.345Z,100582.43
2022-12-04T21:39:49.813Z,100585.66
2022-12-04T21:41:54.216Z,100583.17
2022-12-04T21:43:58.635Z,100580.47
2022-12-04T21:46:10.061Z,100583.43
2022-12-04T21:48:14.741Z,100577.25
2022-12-04T21:50:19.157Z,100576.33
2022-12-04T21:52:23.563Z,100579.33
2022-12-04T21:54:27.989Z,100578.16
2022-12-04T21:56:32.412Z,100578.36
2022-12-04T21:58:36.826Z,100570.83
2022-12-04T22:00:41.221Z,100580.99
2022-12-04T22:02:45.846Z,100589.14
2022-12-04T22:04:50.397Z,100581.47
2022-12-04T22:06:54.774Z,100583.2
2022-12-04T22:08:59.206Z,100580.45
2022-12-04T22:11:03.576Z,100574.63
2022-12-04T22:13:07.972Z,100577.4
2022-12-04T22:15:12.378Z,100583.02
2022-12-04T22:17:16.783Z,100583.53
2022-12-04T22:19:21.193Z,100578.28
2022-12-04T22:21:25.591Z,100579.47
2022-12-04T22:23:29.997Z,100575.75
2022-12-04T22:25:34.399Z,100571.49
2022-12-04T22:27:38.886Z,100564.2
2022-12-04T22:29:51.755Z,100560.85
2022-12-04T22:31:56.357Z,100567.06
2022-12-04T22:34:00.734Z,100569.86
2022-12-04T22:36:05.095Z,100563.93
2022-12-04T22:38:09.458Z,100566.7
2022-12-04T22:40:13.860Z,100572.53
2022-12-04T22:42:18.267Z,100572.47
2022-12-04T22:44:22.610Z,100566.43
2022-12-04T22:46:27.343Z,100565.89
2022-12-04T22:48:31.876Z,100562
2022-12-04T22:50:36.230Z,100558.09
2022-12-04T22:52:40.582Z,100553.92
2022-12-04T22:54:44.935Z,100555.13
2022-12-04T22:56:49.280Z,100551.38
2022-12-04T22:58:53.619Z,100557.03
2022-12-04T23:00:58.007Z,100549.33
2022-12-04T23:03:02.533Z,100547.83
2022-12-04T23:05:07.256Z,100546.56
2022-12-04T23:07:12.133Z,100544.86
2022-12-04T23:09:16.500Z,100540.74
2022-12-04T23:11:20.888Z,100543.3
2022-12-04T23:13:25.258Z,100539.35
2022-12-04T23:15:29.639Z,100542.59
2022-12-04T23:17:33.987Z,100537.3
2022-12-04T23:19:38.322Z,100540.41
2022-12-04T23:21:42.690Z,100537.98
2022-12-04T23:23:47.047Z,100533.83
2022-12-04T23:25:51.430Z,100535.67
2022-12-04T23:27:55.847Z,100534.72
2022-12-04T23:30:00.237Z,100531.34
2022-12-04T23:32:04.987Z,100533.83
2022-12-04T23:34:09.519Z,100538.7
2022-12-04T23:36:13.889Z,100537.61
2022-12-04T23:38:18.231Z,100536.83
2022-12-04T23:40:22.575Z,100538.09
2022-12-04T23:42:26.955Z,100539.63
2022-12-04T23:44:31.296Z,100538.64
2022-12-04T23:46:35.834Z,100534.25
2022-12-04T23:48:40.329Z,100535.2
2022-12-04T23:50:44.698Z,100537.63